sensor_id;sensor_type;location;lat;lon;timestamp;temperature;humidity
53073;DHT22;38955;48.916;2.336;2024-01-15T00:01:51;3.60;99.00
53073;DHT22;38955;48.916;2.336;2024-01-15T00:03:53;3.80;99.80
53073;DHT22;38955;48.916;2.336;2024-01-15T00:05:56;3.70;98.80
53073;DHT22;38955;48.916;2.336;2024-01-15T00:07:58;3.70;99.10
53073;DHT22;38955;48.916;2.336;2024-01-15T00:10:00;3.60;99.30
53073;DHT22;38955;48.916;2.336;2024-01-15T00:12:04;3.50;99.50
53073;DHT22;38955;48.916;2.336;2024-01-15T00:14:06;3.50;99.30
53073;DHT22;38955;48.916;2.336;2024-01-15T00:16:08;3.40;99.70
53073;DHT22;38955;48.916;2.336;2024-01-15T00:18:11;3.50;99.60
53073;DHT22;38955;48.916;2.336;2024-01-15T00:20:14;3.30;99.30
53073;DHT22;38955;48.916;2.336;2024-01-15T00:22:16;3.40;99.80
53073;DHT22;38955;48.916;2.336;2024-01-15T00:24:18;3.50;99.70
53073;DHT22;38955;48.916;2.336;2024-01-15T00:26:21;3.60;99.80
53073;DHT22;38955;48.916;2.336;2024-01-15T00:28:23;3.50;99.60
53073;DHT22;38955;48.916;2.336;2024-01-15T00:30:25;3.50;99.50
53073;DHT22;38955;48.916;2.336;2024-01-15T00:32:27;3.50;99.80
53073;DHT22;38955;48.916;2.336;2024-01-15T00:34:31;3.60;99.90
53073;DHT22;38955;48.916;2.336;2024-01-15T00:36:34;3.70;99.70
53073;DHT22;38955;48.916;2.336;2024-01-15T00:38:36;3.90;99.80
53073;DHT22;38955;48.916;2.336;2024-01-15T00:40:38;3.90;99.60
53073;DHT22;38955;48.916;2.336;2024-01-15T00:42:40;3.90;99.20
53073;DHT22;38955;48.916;2.336;2024-01-15T00:44:44;4.00;99.50
53073;DHT22;38955;48.916;2.336;2024-01-15T00:46:46;3.90;99.30
53073;DHT22;38955;48.916;2.336;2024-01-15T00:48:48;3.90;99.40
53073;DHT22;38955;48.916;2.336;2024-01-15T00:50:52;3.80;99.40
53073;DHT22;38955;48.916;2.336;2024-01-15T00:52:56;3.80;99.70
53073;DHT22;38955;48.916;2.336;2024-01-15T00:54:58;3.80;99.50
53073;DHT22;38955;48.916;2.336;2024-01-15T00:57:00;3.80;99.40
53073;DHT22;38955;48.916;2.336;2024-01-15T00:59:02;3.90;99.70
53073;DHT22;38955;48.916;2.336;2024-01-15T01:01:04;3.90;99.50
53073;DHT22;38955;48.916;2.336;2024-01-15T01:03:07;3.90;99.40
53073;DHT22;38955;48.916;2.336;2024-01-15T01:05:09;4.10;99.50
53073;DHT22;38955;48.916;2.336;2024-01-15T01:07:13;4.10;99.60
53073;DHT22;38955;48.916;2.336;2024-01-15T01:09:15;4.10;99.40
53073;DHT22;38955;48.916;2.336;2024-01-15T01:11:17;4.10;99.30
53073;DHT22;38955;48.916;2.336;2024-01-15T01:13:19;4.10;99.20
53073;DHT22;38955;48.916;2.336;2024-01-15T01:15:22;3.90;98.80
53073;DHT22;38955;48.916;2.336;2024-01-15T01:17:25;3.90;99.50
53073;DHT22;38955;48.916;2.336;2024-01-15T01:19:27;3.90;99.40
53073;DHT22;38955;48.916;2.336;2024-01-15T01:21:29;4.00;99.90
53073;DHT22;38955;48.916;2.336;2024-01-15T01:23:35;4.00;99.60
53073;DHT22;38955;48.916;2.336;2024-01-15T01:25:37;4.10;99.50
53073;DHT22;38955;48.916;2.336;2024-01-15T01:27:40;4.00;99.30
53073;DHT22;38955;48.916;2.336;2024-01-15T01:29:44;4.00;99.70
53073;DHT22;38955;48.916;2.336;2024-01-15T01:31:46;4.00;99.40
53073;DHT22;38955;48.916;2.336;2024-01-15T01:33:48;4.00;99.60
53073;DHT22;38955;48.916;2.336;2024-01-15T01:35:50;3.90;99.50
53073;DHT22;38955;48.916;2.336;2024-01-15T01:37:52;3.90;99.90
53073;DHT22;38955;48.916;2.336;2024-01-15T01:39:56;3.90;99.90
53073;DHT22;38955;48.916;2.336;2024-01-15T01:41:58;4.00;99.90
53073;DHT22;38955;48.916;2.336;2024-01-15T01:44:00;4.00;99.80
53073;DHT22;38955;48.916;2.336;2024-01-15T01:46:03;4.10;99.90
53073;DHT22;38955;48.916;2.336;2024-01-15T01:48:06;4.10;99.40
53073;DHT22;38955;48.916;2.336;2024-01-15T01:50:08;4.00;99.90
53073;DHT22;38955;48.916;2.336;2024-01-15T01:52:10;3.90;99.90
53073;DHT22;38955;48.916;2.336;2024-01-15T01:54:13;4.00;99.90
53073;DHT22;38955;48.916;2.336;2024-01-15T01:56:17;4.00;99.90
53073;DHT22;38955;48.916;2.336;2024-01-15T01:58:20;4.00;99.90
53073;DHT22;38955;48.916;2.336;2024-01-15T02:00:22;4.00;99.90
53073;DHT22;38955;48.916;2.336;2024-01-15T02:02:24;4.00;99.90
53073;DHT22;38955;48.916;2.336;2024-01-15T02:04:28;4.10;99.90
53073;DHT22;38955;48.916;2.336;2024-01-15T02:06:30;4.20;99.90
53073;DHT22;38955;48.916;2.336;2024-01-15T02:08:32;4.20;99.90
53073;DHT22;38955;48.916;2.336;2024-01-15T02:10:35;4.20;99.70
53073;DHT22;38955;48.916;2.336;2024-01-15T02:12:38;4.20;99.70
53073;DHT22;38955;48.916;2.336;2024-01-15T02:14:40;4.10;99.90
53073;DHT22;38955;48.916;2.336;2024-01-15T02:16:43;4.00;99.90
53073;DHT22;38955;48.916;2.336;2024-01-15T02:18:46;4.00;99.90
53073;DHT22;38955;48.916;2.336;2024-01-15T02:20:48;3.90;99.90
53073;DHT22;38955;48.916;2.336;2024-01-15T02:22:52;3.90;99.90
53073;DHT22;38955;48.916;2.336;2024-01-15T02:24:55;3.90;99.90
53073;DHT22;38955;48.916;2.336;2024-01-15T02:26:58;4.00;99.90
53073;DHT22;38955;48.916;2.336;2024-01-15T02:29:00;4.10;99.90
53073;DHT22;38955;48.916;2.336;2024-01-15T02:31:02;4.10;99.90
53073;DHT22;38955;48.916;2.336;2024-01-15T02:33:04;4.10;99.90
53073;DHT22;38955;48.916;2.336;2024-01-15T02:35:07;4.10;99.90
53073;DHT22;38955;48.916;2.336;2024-01-15T02:37:09;4.10;99.90
53073;DHT22;38955;48.916;2.336;2024-01-15T02:39:11;4.10;99.90
53073;DHT22;38955;48.916;2.336;2024-01-15T02:41:15;4.00;99.90
53073;DHT22;38955;48.916;2.336;2024-01-15T02:43:17;4.00;99.90
53073;DHT22;38955;48.916;2.336;2024-01-15T02:45:21;4.00;99.90
53073;DHT22;38955;48.916;2.336;2024-01-15T02:47:23;4.00;99.90
53073;DHT22;38955;48.916;2.336;2024-01-15T02:49:25;4.00;99.90
53073;DHT22;38955;48.916;2.336;2024-01-15T02:51:28;4.10;99.90
53073;DHT22;38955;48.916;2.336;2024-01-15T02:53:30;4.10;99.90
53073;DHT22;38955;48.916;2.336;2024-01-15T02:55:32;4.10;99.90
53073;DHT22;38955;48.916;2.336;2024-01-15T02:57:36;4.00;99.90
53073;DHT22;38955;48.916;2.336;2024-01-15T02:59:38;4.10;99.90
53073;DHT22;38955;48.916;2.336;2024-01-15T03:01:40;4.10;99.90
53073;DHT22;38955;48.916;2.336;2024-01-15T03:03:42;4.10;99.90
53073;DHT22;38955;48.916;2.336;2024-01-15T03:05:44;4.10;99.90
53073;DHT22;38955;48.916;2.336;2024-01-15T03:07:49;4.00;99.90
53073;DHT22;38955;48.916;2.336;2024-01-15T03:09:51;4.10;99.90
53073;DHT22;38955;48.916;2.336;2024-01-15T03:11:53;4.10;99.90
53073;DHT22;38955;48.916;2.336;2024-01-15T03:13:56;4.00;99.90
53073;DHT22;38955;48.916;2.336;2024-01-15T03:16:04;3.80;99.90
53073;DHT22;38955;48.916;2.336;2024-01-15T03:18:06;3.90;99.90
53073;DHT22;38955;48.916;2.336;2024-01-15T03:20:09;3.60;99.90
53073;DHT22;38955;48.916;2.336;2024-01-15T03:22:13;3.80;99.90
53073;DHT22;38955;48.916;2.336;2024-01-15T03:24:15;3.90;99.90
53073;DHT22;38955;48.916;2.336;2024-01-15T03:26:17;4.00;99.90
53073;DHT22;38955;48.916;2.336;2024-01-15T03:28:19;4.10;99.90
53073;DHT22;38955;48.916;2.336;2024-01-15T03:30:22;4.00;99.90
53073;DHT22;38955;48.916;2.336;2024-01-15T03:32:25;4.00;99.90
53073;DHT22;38955;48.916;2.336;2024-01-15T03:34:27;3.90;99.90
53073;DHT22;38955;48.916;2.336;2024-01-15T03:36:29;4.00;99.90
53073;DHT22;38955;48.916;2.336;2024-01-15T03:38:31;3.90;99.90
53073;DHT22;38955;48.916;2.336;2024-01-15T03:40:33;4.00;99.90
53073;DHT22;38955;48.916;2.336;2024-01-15T03:42:35;4.00;99.90
53073;DHT22;38955;48.916;2.336;2024-01-15T03:44:37;4.10;99.90
53073;DHT22;38955;48.916;2.336;2024-01-15T03:46:41;4.00;99.90
53073;DHT22;38955;48.916;2.336;2024-01-15T03:48:43;4.00;99.90
53073;DHT22;38955;48.916;2.336;2024-01-15T03:50:45;4.00;99.90
53073;DHT22;38955;48.916;2.336;2024-01-15T03:52:48;4.10;99.90
53073;DHT22;38955;48.916;2.336;2024-01-15T03:54:51;4.10;99.90
53073;DHT22;38955;48.916;2.336;2024-01-15T03:56:53;4.00;99.90
53073;DHT22;38955;48.916;2.336;2024-01-15T03:58:55;4.00;99.90
53073;DHT22;38955;48.916;2.336;2024-01-15T04:00:57;3.90;99.90
53073;DHT22;38955;48.916;2.336;2024-01-15T04:03:01;4.00;99.90
53073;DHT22;38955;48.916;2.336;2024-01-15T04:05:04;4.00;99.90
53073;DHT22;38955;48.916;2.336;2024-01-15T04:07:06;4.00;99.90
53073;DHT22;38955;48.916;2.336;2024-01-15T04:09:08;4.00;99.90
53073;DHT22;38955;48.916;2.336;2024-01-15T04:11:11;4.00;99.90
53073;DHT22;38955;48.916;2.336;2024-01-15T04:13:14;4.00;99.90
53073;DHT22;38955;48.916;2.336;2024-01-15T04:15:16;4.00;99.90
53073;DHT22;38955;48.916;2.336;2024-01-15T04:17:18;4.10;99.90
53073;DHT22;38955;48.916;2.336;2024-01-15T04:19:21;4.00;99.90
53073;DHT22;38955;48.916;2.336;2024-01-15T04:21:23;4.00;99.90
53073;DHT22;38955;48.916;2.336;2024-01-15T04:23:25;4.10;99.90
53073;DHT22;38955;48.916;2.336;2024-01-15T04:25:27;4.00;99.90
53073;DHT22;38955;48.916;2.336;2024-01-15T04:27:29;4.00;99.90
53073;DHT22;38955;48.916;2.336;2024-01-15T04:29:32;4.00;99.90
53073;DHT22;38955;48.916;2.336;2024-01-15T04:31:37;3.90;99.90
53073;DHT22;38955;48.916;2.336;2024-01-15T04:33:39;3.80;99.90
53073;DHT22;38955;48.916;2.336;2024-01-15T04:35:44;3.90;99.90
53073;DHT22;38955;48.916;2.336;2024-01-15T04:37:46;3.90;99.90
53073;DHT22;38955;48.916;2.336;2024-01-15T04:39:48;3.90;99.90
53073;DHT22;38955;48.916;2.336;2024-01-15T04:41:50;3.90;99.90
53073;DHT22;38955;48.916;2.336;2024-01-15T04:43:52;4.00;99.90
53073;DHT22;38955;48.916;2.336;2024-01-15T04:45:54;4.00;99.90
53073;DHT22;38955;48.916;2.336;2024-01-15T04:47:57;4.10;99.90
53073;DHT22;38955;48.916;2.336;2024-01-15T04:49:59;4.10;99.90
53073;DHT22;38955;48.916;2.336;2024-01-15T04:52:03;4.10;99.90
53073;DHT22;38955;48.916;2.336;2024-01-15T04:54:05;4.10;99.90
53073;DHT22;38955;48.916;2.336;2024-01-15T04:56:08;4.10;99.90
53073;DHT22;38955;48.916;2.336;2024-01-15T04:58:10;4.20;99.90
53073;DHT22;38955;48.916;2.336;2024-01-15T05:00:13;4.20;99.90
53073;DHT22;38955;48.916;2.336;2024-01-15T05:02:16;4.20;99.90
53073;DHT22;38955;48.916;2.336;2024-01-15T05:04:18;4.30;99.90
53073;DHT22;38955;48.916;2.336;2024-01-15T05:06:21;4.20;99.90
53073;DHT22;38955;48.916;2.336;2024-01-15T05:08:24;4.30;99.90
53073;DHT22;38955;48.916;2.336;2024-01-15T05:10:26;4.30;99.90
53073;DHT22;38955;48.916;2.336;2024-01-15T05:12:28;4.30;99.90
53073;DHT22;38955;48.916;2.336;2024-01-15T05:14:31;4.30;99.90
53073;DHT22;38955;48.916;2.336;2024-01-15T05:16:33;4.40;99.90
53073;DHT22;38955;48.916;2.336;2024-01-15T05:18:35;4.20;99.90
53073;DHT22;38955;48.916;2.336;2024-01-15T05:20:39;4.20;99.90
53073;DHT22;38955;48.916;2.336;2024-01-15T05:22:41;4.20;99.90
53073;DHT22;38955;48.916;2.336;2024-01-15T05:24:45;4.20;99.90
53073;DHT22;38955;48.916;2.336;2024-01-15T05:26:47;4.10;99.90
53073;DHT22;38955;48.916;2.336;2024-01-15T05:28:49;4.10;99.90
53073;DHT22;38955;48.916;2.336;2024-01-15T05:30:51;4.10;99.90
53073;DHT22;38955;48.916;2.336;2024-01-15T05:32:54;4.10;99.90
53073;DHT22;38955;48.916;2.336;2024-01-15T05:34:56;4.20;99.90
53073;DHT22;38955;48.916;2.336;2024-01-15T05:36:58;4.20;99.90
53073;DHT22;38955;48.916;2.336;2024-01-15T05:39:00;4.20;99.90
53073;DHT22;38955;48.916;2.336;2024-01-15T05:41:05;4.30;99.90
53073;DHT22;38955;48.916;2.336;2024-01-15T05:43:07;4.20;99.90
53073;DHT22;38955;48.916;2.336;2024-01-15T05:45:09;4.20;99.90
53073;DHT22;38955;48.916;2.336;2024-01-15T05:47:11;4.10;99.90
53073;DHT22;38955;48.916;2.336;2024-01-15T05:49:15;4.10;99.90
53073;DHT22;38955;48.916;2.336;2024-01-15T05:51:17;4.10;99.90
53073;DHT22;38955;48.916;2.336;2024-01-15T05:53:19;4.20;99.90
53073;DHT22;38955;48.916;2.336;2024-01-15T05:55:21;4.30;99.90
53073;DHT22;38955;48.916;2.336;2024-01-15T05:57:25;4.20;99.90
53073;DHT22;38955;48.916;2.336;2024-01-15T05:59:27;4.20;99.90
53073;DHT22;38955;48.916;2.336;2024-01-15T06:01:33;4.30;99.90
53073;DHT22;38955;48.916;2.336;2024-01-15T06:03:36;4.20;99.90
53073;DHT22;38955;48.916;2.336;2024-01-15T06:05:39;4.20;99.90
53073;DHT22;38955;48.916;2.336;2024-01-15T06:07:41;4.30;99.90
53073;DHT22;38955;48.916;2.336;2024-01-15T06:09:43;4.30;99.90
53073;DHT22;38955;48.916;2.336;2024-01-15T06:11:46;4.30;99.90
53073;DHT22;38955;48.916;2.336;2024-01-15T06:13:49;4.30;99.90
53073;DHT22;38955;48.916;2.336;2024-01-15T06:15:51;4.30;99.90
53073;DHT22;38955;48.916;2.336;2024-01-15T06:17:53;4.40;99.90
53073;DHT22;38955;48.916;2.336;2024-01-15T06:19:56;4.50;99.90
53073;DHT22;38955;48.916;2.336;2024-01-15T06:21:59;4.40;99.90
53073;DHT22;38955;48.916;2.336;2024-01-15T06:24:02;4.40;99.90
53073;DHT22;38955;48.916;2.336;2024-01-15T06:26:04;4.40;99.90
53073;DHT22;38955;48.916;2.336;2024-01-15T06:28:06;4.40;99.90
53073;DHT22;38955;48.916;2.336;2024-01-15T06:30:11;4.30;99.90
53073;DHT22;38955;48.916;2.336;2024-01-15T06:32:17;4.30;99.90
53073;DHT22;38955;48.916;2.336;2024-01-15T06:34:19;4.30;99.90
53073;DHT22;38955;48.916;2.336;2024-01-15T06:36:21;4.20;99.90
53073;DHT22;38955;48.916;2.336;2024-01-15T06:38:23;4.20;99.90
53073;DHT22;38955;48.916;2.336;2024-01-15T06:40:26;4.30;99.90
53073;DHT22;38955;48.916;2.336;2024-01-15T06:42:28;4.40;99.90
53073;DHT22;38955;48.916;2.336;2024-01-15T06:44:30;4.40;99.90
53073;DHT22;38955;48.916;2.336;2024-01-15T06:46:34;4.20;99.90
53073;DHT22;38955;48.916;2.336;2024-01-15T06:48:37;4.30;99.90
53073;DHT22;38955;48.916;2.336;2024-01-15T06:50:41;4.40;99.90
53073;DHT22;38955;48.916;2.336;2024-01-15T06:52:45;4.40;99.90
53073;DHT22;38955;48.916;2.336;2024-01-15T06:54:47;4.40;99.90
53073;DHT22;38955;48.916;2.336;2024-01-15T06:56:50;4.20;99.90
53073;DHT22;38955;48.916;2.336;2024-01-15T06:58:52;4.20;99.90
53073;DHT22;38955;48.916;2.336;2024-01-15T07:00:55;4.30;99.90
53073;DHT22;38955;48.916;2.336;2024-01-15T07:02:59;4.40;99.90
53073;DHT22;38955;48.916;2.336;2024-01-15T07:05:04;4.40;99.90
53073;DHT22;38955;48.916;2.336;2024-01-15T07:07:09;4.50;99.90
53073;DHT22;38955;48.916;2.336;2024-01-15T07:09:14;4.50;99.90
53073;DHT22;38955;48.916;2.336;2024-01-15T07:11:16;4.50;99.90
53073;DHT22;38955;48.916;2.336;2024-01-15T07:13:18;4.60;99.90
53073;DHT22;38955;48.916;2.336;2024-01-15T07:15:20;4.50;99.90
53073;DHT22;38955;48.916;2.336;2024-01-15T07:17:22;4.30;99.90
53073;DHT22;38955;48.916;2.336;2024-01-15T07:19:26;4.40;99.90
53073;DHT22;38955;48.916;2.336;2024-01-15T07:21:28;4.40;99.90
53073;DHT22;38955;48.916;2.336;2024-01-15T07:23:32;4.40;99.90
53073;DHT22;38955;48.916;2.336;2024-01-15T07:25:35;4.50;99.90
53073;DHT22;38955;48.916;2.336;2024-01-15T07:27:38;4.50;99.90
53073;DHT22;38955;48.916;2.336;2024-01-15T07:29:40;4.50;99.90
53073;DHT22;38955;48.916;2.336;2024-01-15T07:31:48;4.50;99.90
53073;DHT22;38955;48.916;2.336;2024-01-15T07:33:50;4.40;99.90
53073;DHT22;38955;48.916;2.336;2024-01-15T07:35:55;4.40;99.90
53073;DHT22;38955;48.916;2.336;2024-01-15T07:37:57;4.40;99.90
53073;DHT22;38955;48.916;2.336;2024-01-15T07:40:00;4.50;99.90
53073;DHT22;38955;48.916;2.336;2024-01-15T07:42:03;4.50;99.90
53073;DHT22;38955;48.916;2.336;2024-01-15T07:44:05;4.40;99.90
53073;DHT22;38955;48.916;2.336;2024-01-15T07:46:07;4.30;99.90
53073;DHT22;38955;48.916;2.336;2024-01-15T07:48:10;4.50;99.90
53073;DHT22;38955;48.916;2.336;2024-01-15T07:50:12;4.40;99.90
53073;DHT22;38955;48.916;2.336;2024-01-15T07:52:16;4.40;99.90
53073;DHT22;38955;48.916;2.336;2024-01-15T07:54:18;4.40;99.90
53073;DHT22;38955;48.916;2.336;2024-01-15T07:56:20;4.40;99.90
53073;DHT22;38955;48.916;2.336;2024-01-15T07:58:23;4.50;99.90
53073;DHT22;38955;48.916;2.336;2024-01-15T08:00:25;4.50;99.90
53073;DHT22;38955;48.916;2.336;2024-01-15T08:02:28;4.40;99.90
53073;DHT22;38955;48.916;2.336;2024-01-15T08:04:30;4.40;99.90
53073;DHT22;38955;48.916;2.336;2024-01-15T08:06:33;4.50;99.90
53073;DHT22;38955;48.916;2.336;2024-01-15T08:08:37;4.60;99.90
53073;DHT22;38955;48.916;2.336;2024-01-15T08:10:39;4.60;99.90
53073;DHT22;38955;48.916;2.336;2024-01-15T08:12:41;4.70;99.90
53073;DHT22;38955;48.916;2.336;2024-01-15T08:14:43;4.60;99.90
53073;DHT22;38955;48.916;2.336;2024-01-15T08:16:46;4.60;99.90
53073;DHT22;38955;48.916;2.336;2024-01-15T08:18:48;4.60;99.90
53073;DHT22;38955;48.916;2.336;2024-01-15T08:20:50;4.60;99.90
53073;DHT22;38955;48.916;2.336;2024-01-15T08:22:53;4.60;99.90
53073;DHT22;38955;48.916;2.336;2024-01-15T08:24:57;4.60;99.90
53073;DHT22;38955;48.916;2.336;2024-01-15T08:26:59;4.60;99.90
53073;DHT22;38955;48.916;2.336;2024-01-15T08:29:01;4.70;99.90
53073;DHT22;38955;48.916;2.336;2024-01-15T08:31:03;4.60;99.90
53073;DHT22;38955;48.916;2.336;2024-01-15T08:33:05;4.60;99.90
53073;DHT22;38955;48.916;2.336;2024-01-15T08:35:19;4.60;99.90
53073;DHT22;38955;48.916;2.336;2024-01-15T08:37:24;4.60;99.90
53073;DHT22;38955;48.916;2.336;2024-01-15T08:39:26;4.70;99.90
53073;DHT22;38955;48.916;2.336;2024-01-15T08:41:33;4.80;99.90
53073;DHT22;38955;48.916;2.336;2024-01-15T08:43:36;4.80;99.90
53073;DHT22;38955;48.916;2.336;2024-01-15T08:45:38;4.80;99.90
53073;DHT22;38955;48.916;2.336;2024-01-15T08:47:41;4.80;99.90
53073;DHT22;38955;48.916;2.336;2024-01-15T08:49:43;4.80;99.90
53073;DHT22;38955;48.916;2.336;2024-01-15T08:51:47;4.80;99.90
53073;DHT22;38955;48.916;2.336;2024-01-15T08:53:50;4.80;99.90
53073;DHT22;38955;48.916;2.336;2024-01-15T08:55:52;4.90;99.90
53073;DHT22;38955;48.916;2.336;2024-01-15T08:57:55;4.90;99.90
53073;DHT22;38955;48.916;2.336;2024-01-15T08:59:58;4.90;99.90
53073;DHT22;38955;48.916;2.336;2024-01-15T09:02:01;4.90;99.90
53073;DHT22;38955;48.916;2.336;2024-01-15T09:04:03;4.90;99.90
53073;DHT22;38955;48.916;2.336;2024-01-15T09:06:06;4.80;99.90
53073;DHT22;38955;48.916;2.336;2024-01-15T09:08:08;4.80;99.90
53073;DHT22;38955;48.916;2.336;2024-01-15T09:10:10;4.80;99.90
53073;DHT22;38955;48.916;2.336;2024-01-15T09:12:12;4.80;99.90
53073;DHT22;38955;48.916;2.336;2024-01-15T09:14:18;4.70;99.90
53073;DHT22;38955;48.916;2.336;2024-01-15T09:16:37;4.70;99.90
53073;DHT22;38955;48.916;2.336;2024-01-15T09:18:40;4.80;99.90
53073;DHT22;38955;48.916;2.336;2024-01-15T09:20:44;4.90;99.90
53073;DHT22;38955;48.916;2.336;2024-01-15T09:22:46;5.00;99.90
53073;DHT22;38955;48.916;2.336;2024-01-15T09:24:48;5.00;99.90
53073;DHT22;38955;48.916;2.336;2024-01-15T09:26:50;4.90;99.90
53073;DHT22;38955;48.916;2.336;2024-01-15T09:28:55;5.00;99.90
53073;DHT22;38955;48.916;2.336;2024-01-15T09:30:58;4.80;99.90
53073;DHT22;38955;48.916;2.336;2024-01-15T09:33:00;4.70;99.90
53073;DHT22;38955;48.916;2.336;2024-01-15T09:35:03;4.80;99.90
53073;DHT22;38955;48.916;2.336;2024-01-15T09:37:05;4.80;99.90
53073;DHT22;38955;48.916;2.336;2024-01-15T09:39:07;4.90;99.90
53073;DHT22;38955;48.916;2.336;2024-01-15T09:41:10;4.90;99.90
53073;DHT22;38955;48.916;2.336;2024-01-15T09:43:12;5.10;99.90
53073;DHT22;38955;48.916;2.336;2024-01-15T09:45:16;5.20;99.90
53073;DHT22;38955;48.916;2.336;2024-01-15T09:47:20;5.20;99.80
53073;DHT22;38955;48.916;2.336;2024-01-15T09:49:23;5.40;99.80
53073;DHT22;38955;48.916;2.336;2024-01-15T09:51:28;5.40;99.90
53073;DHT22;38955;48.916;2.336;2024-01-15T09:53:33;5.50;99.50
53073;DHT22;38955;48.916;2.336;2024-01-15T09:55:36;5.60;99.10
53073;DHT22;38955;48.916;2.336;2024-01-15T09:57:39;5.30;98.80
53073;DHT22;38955;48.916;2.336;2024-01-15T09:59:44;5.30;98.90
53073;DHT22;38955;48.916;2.336;2024-01-15T10:01:47;5.20;98.90
53073;DHT22;38955;48.916;2.336;2024-01-15T10:03:54;5.20;99.00
53073;DHT22;38955;48.916;2.336;2024-01-15T10:05:59;5.30;99.10
53073;DHT22;38955;48.916;2.336;2024-01-15T10:08:02;5.40;99.10
53073;DHT22;38955;48.916;2.336;2024-01-15T10:10:05;5.50;98.50
53073;DHT22;38955;48.916;2.336;2024-01-15T10:12:10;5.50;98.80
53073;DHT22;38955;48.916;2.336;2024-01-15T10:14:13;5.50;98.30
53073;DHT22;38955;48.916;2.336;2024-01-15T10:16:15;5.60;98.30
53073;DHT22;38955;48.916;2.336;2024-01-15T10:18:17;5.60;97.50
53073;DHT22;38955;48.916;2.336;2024-01-15T10:20:22;5.60;98.00
53073;DHT22;38955;48.916;2.336;2024-01-15T10:22:26;5.60;97.50
53073;DHT22;38955;48.916;2.336;2024-01-15T10:24:28;5.60;97.60
53073;DHT22;38955;48.916;2.336;2024-01-15T10:26:30;5.70;97.50
53073;DHT22;38955;48.916;2.336;2024-01-15T10:28:32;5.70;97.00
53073;DHT22;38955;48.916;2.336;2024-01-15T10:30:34;5.70;96.80
53073;DHT22;38955;48.916;2.336;2024-01-15T10:32:37;5.80;96.80
53073;DHT22;38955;48.916;2.336;2024-01-15T10:34:39;5.90;97.20
53073;DHT22;38955;48.916;2.336;2024-01-15T10:36:45;6.00;97.30
53073;DHT22;38955;48.916;2.336;2024-01-15T10:38:49;6.00;96.50
53073;DHT22;38955;48.916;2.336;2024-01-15T10:40:52;5.90;96.20
53073;DHT22;38955;48.916;2.336;2024-01-15T10:42:55;6.00;96.20
53073;DHT22;38955;48.916;2.336;2024-01-15T10:44:57;5.80;95.30
53073;DHT22;38955;48.916;2.336;2024-01-15T10:46:59;5.70;94.60
53073;DHT22;38955;48.916;2.336;2024-01-15T10:49:02;5.70;95.10
53073;DHT22;38955;48.916;2.336;2024-01-15T10:51:06;5.70;94.30
53073;DHT22;38955;48.916;2.336;2024-01-15T10:53:16;5.80;95.20
53073;DHT22;38955;48.916;2.336;2024-01-15T10:55:19;5.80;93.90
53073;DHT22;38955;48.916;2.336;2024-01-15T10:57:22;5.80;93.20
53073;DHT22;38955;48.916;2.336;2024-01-15T10:59:25;5.80;93.20
53073;DHT22;38955;48.916;2.336;2024-01-15T11:01:28;5.70;92.00
53073;DHT22;38955;48.916;2.336;2024-01-15T11:03:33;5.70;92.60
53073;DHT22;38955;48.916;2.336;2024-01-15T11:05:37;5.70;92.30
53073;DHT22;38955;48.916;2.336;2024-01-15T11:07:40;5.80;91.30
53073;DHT22;38955;48.916;2.336;2024-01-15T11:09:45;5.80;91.80
53073;DHT22;38955;48.916;2.336;2024-01-15T11:13:53;5.70;90.90
53073;DHT22;38955;48.916;2.336;2024-01-15T11:16:00;5.70;91.30
53073;DHT22;38955;48.916;2.336;2024-01-15T11:18:04;5.80;91.80
53073;DHT22;38955;48.916;2.336;2024-01-15T11:20:12;5.90;91.40
53073;DHT22;38955;48.916;2.336;2024-01-15T11:22:48;5.80;91.00
53073;DHT22;38955;48.916;2.336;2024-01-15T11:24:52;5.80;90.70
53073;DHT22;38955;48.916;2.336;2024-01-15T11:26:54;5.60;90.70
53073;DHT22;38955;48.916;2.336;2024-01-15T11:28:58;5.60;90.90
53073;DHT22;38955;48.916;2.336;2024-01-15T11:31:04;5.60;91.20
53073;DHT22;38955;48.916;2.336;2024-01-15T11:33:32;5.70;90.60
53073;DHT22;38955;48.916;2.336;2024-01-15T11:35:50;5.80;90.80
53073;DHT22;38955;48.916;2.336;2024-01-15T11:37:59;5.80;90.60
53073;DHT22;38955;48.916;2.336;2024-01-15T11:40:03;5.70;90.90
53073;DHT22;38955;48.916;2.336;2024-01-15T11:42:13;5.80;91.30
53073;DHT22;38955;48.916;2.336;2024-01-15T11:44:16;5.80;90.70
53073;DHT22;38955;48.916;2.336;2024-01-15T11:46:18;5.70;90.40
53073;DHT22;38955;48.916;2.336;2024-01-15T11:48:20;5.60;90.60
53073;DHT22;38955;48.916;2.336;2024-01-15T11:50:24;5.50;90.70
53073;DHT22;38955;48.916;2.336;2024-01-15T11:52:33;5.60;90.80
53073;DHT22;38955;48.916;2.336;2024-01-15T11:54:38;5.50;90.60
53073;DHT22;38955;48.916;2.336;2024-01-15T11:56:43;5.50;90.60
53073;DHT22;38955;48.916;2.336;2024-01-15T11:58:46;5.50;90.80
53073;DHT22;38955;48.916;2.336;2024-01-15T12:00:48;5.50;90.70
53073;DHT22;38955;48.916;2.336;2024-01-15T12:02:55;5.50;90.20
53073;DHT22;38955;48.916;2.336;2024-01-15T12:04:57;5.60;90.40
53073;DHT22;38955;48.916;2.336;2024-01-15T12:07:00;5.70;90.40
53073;DHT22;38955;48.916;2.336;2024-01-15T12:09:06;5.60;90.10
53073;DHT22;38955;48.916;2.336;2024-01-15T12:11:13;5.60;90.20
53073;DHT22;38955;48.916;2.336;2024-01-15T12:13:17;5.70;90.30
53073;DHT22;38955;48.916;2.336;2024-01-15T12:15:22;5.80;90.30
53073;DHT22;38955;48.916;2.336;2024-01-15T12:17:24;5.90;90.10
53073;DHT22;38955;48.916;2.336;2024-01-15T12:19:26;5.60;89.70
53073;DHT22;38955;48.916;2.336;2024-01-15T12:21:28;5.70;89.90
53073;DHT22;38955;48.916;2.336;2024-01-15T12:23:30;5.60;90.00
53073;DHT22;38955;48.916;2.336;2024-01-15T12:25:33;5.70;89.40
53073;DHT22;38955;48.916;2.336;2024-01-15T12:27:35;5.90;89.90
53073;DHT22;38955;48.916;2.336;2024-01-15T12:29:39;5.90;88.90
53073;DHT22;38955;48.916;2.336;2024-01-15T12:31:41;6.10;89.10
53073;DHT22;38955;48.916;2.336;2024-01-15T12:33:44;6.00;87.40
53073;DHT22;38955;48.916;2.336;2024-01-15T12:35:47;6.10;87.00
53073;DHT22;38955;48.916;2.336;2024-01-15T12:37:50;6.00;87.50
53073;DHT22;38955;48.916;2.336;2024-01-15T12:39:52;6.00;87.30
53073;DHT22;38955;48.916;2.336;2024-01-15T12:41:56;6.10;87.70
53073;DHT22;38955;48.916;2.336;2024-01-15T12:43:59;6.00;87.60
53073;DHT22;38955;48.916;2.336;2024-01-15T12:46:02;6.00;87.90
53073;DHT22;38955;48.916;2.336;2024-01-15T12:48:05;6.00;87.50
53073;DHT22;38955;48.916;2.336;2024-01-15T12:50:08;6.10;87.40
53073;DHT22;38955;48.916;2.336;2024-01-15T12:52:20;6.30;88.60
53073;DHT22;38955;48.916;2.336;2024-01-15T12:54:26;6.50;87.50
53073;DHT22;38955;48.916;2.336;2024-01-15T12:56:28;6.50;87.40
53073;DHT22;38955;48.916;2.336;2024-01-15T12:58:30;6.40;85.10
53073;DHT22;38955;48.916;2.336;2024-01-15T13:00:32;6.30;84.50
53073;DHT22;38955;48.916;2.336;2024-01-15T13:02:36;6.30;86.40
53073;DHT22;38955;48.916;2.336;2024-01-15T13:04:38;6.20;85.60
53073;DHT22;38955;48.916;2.336;2024-01-15T13:06:40;6.00;84.60
53073;DHT22;38955;48.916;2.336;2024-01-15T13:08:42;5.90;84.90
53073;DHT22;38955;48.916;2.336;2024-01-15T13:10:45;5.90;85.00
53073;DHT22;38955;48.916;2.336;2024-01-15T13:12:47;6.00;85.80